Time;durP1;ratioP1;P1;durP2;ratioP2;P2;SDS_P1;SDS_P2;PMS_P1;PMS_P2;Temp;Humidity;BMP_temperature;BMP_pressure;BME280_temperature;BME280_humidity;BME280_pressure;Samples;Min_cycle;Max_cycle;Signal;HPM_P1;HPM_P2
2022/04/06 00:03:48;;;;;;;4.43;3.05;;;11.50;91.20;;;;;;10138413;28;20020;-63
2022/04/06 00:08:39;;;;;;;4.60;3.20;;;11.50;91.30;;;;;;10146860;28;20028;-65
2022/04/06 00:13:30;;;;;;;5.93;3.10;;;11.50;91.30;;;;;;10153207;28;20029;-63
2022/04/06 00:18:21;;;;;;;5.45;3.25;;;11.50;91.30;;;;;;10158366;28;20051;-61
2022/04/06 00:23:11;;;;;;;5.57;2.83;;;11.50;91.30;;;;;;10152950;28;20548;-62
2022/04/06 00:28:02;;;;;;;3.05;2.55;;;11.50;91.40;;;;;;10138979;28;20040;-62
2022/04/06 00:32:53;;;;;;;4.95;2.72;;;11.50;91.40;;;;;;10160609;28;20061;-64
2022/04/06 00:37:43;;;;;;;3.85;3.08;;;11.50;91.50;;;;;;10158778;28;20469;-61
2022/04/06 00:42:34;;;;;;;5.13;2.63;;;11.50;91.60;;;;;;10119563;28;20039;-61
2022/04/06 00:47:25;;;;;;;6.10;2.63;;;11.50;91.60;;;;;;10125585;28;20373;-61
2022/04/06 00:52:16;;;;;;;3.33;2.28;;;11.50;91.60;;;;;;10142478;28;20081;-62
2022/04/06 00:57:08;;;;;;;3.35;2.47;;;11.50;91.60;;;;;;10149530;28;20484;-63
2022/04/06 01:01:59;;;;;;;3.67;2.10;;;11.50;91.50;;;;;;10135797;28;20179;-63
2022/04/06 01:06:52;;;;;;;3.78;2.30;;;11.50;91.60;;;;;;10156813;28;20028;-63
2022/04/06 01:11:50;;;;;;;2.80;1.90;;;11.40;91.80;;;;;;10153986;28;20177;-62
2022/04/06 01:16:49;;;;;;;2.70;2.13;;;11.40;91.70;;;;;;10153491;28;20418;-62
2022/04/06 01:21:40;;;;;;;2.72;1.85;;;11.50;91.80;;;;;;10156546;28;20078;-62
2022/04/06 01:26:31;;;;;;;2.00;1.60;;;11.50;91.90;;;;;;10153305;28;20530;-66
2022/04/06 01:31:21;;;;;;;2.88;2.05;;;11.40;92.00;;;;;;10156202;28;20036;-64
2022/04/06 01:36:12;;;;;;;2.25;1.60;;;11.40;91.90;;;;;;10124694;28;20388;-62
2022/04/06 01:41:03;;;;;;;3.22;2.10;;;11.40;91.80;;;;;;10165903;28;20413;-63
2022/04/06 01:45:54;;;;;;;2.03;1.30;;;11.40;91.90;;;;;;10158663;28;20051;-64
2022/04/06 01:55:57;;;;;;;2.85;2.15;;;11.40;91.90;;;;;;10150243;28;20572;-63
2022/04/06 02:00:49;;;;;;;2.90;2.00;;;11.40;91.90;;;;;;10142654;28;20050;-63
2022/04/06 02:05:40;;;;;;;2.80;1.75;;;11.40;91.90;;;;;;10171066;28;20064;-63
2022/04/06 02:10:31;;;;;;;3.03;1.80;;;11.40;92.10;;;;;;10162718;28;20025;-62
2022/04/06 02:15:22;;;;;;;2.45;1.77;;;11.30;92.10;;;;;;10167752;28;20040;-62
2022/04/06 02:20:13;;;;;;;2.70;1.65;;;11.40;92.10;;;;;;10148360;28;20085;-62
2022/04/06 02:25:05;;;;;;;3.30;2.00;;;11.30;92.10;;;;;;10164141;28;20038;-62
2022/04/06 02:29:55;;;;;;;2.78;1.60;;;11.40;92.00;;;;;;10148844;28;20036;-62
2022/04/06 02:34:46;;;;;;;4.45;1.75;;;11.40;92.00;;;;;;10136116;28;20041;-62
2022/04/06 02:39:37;;;;;;;2.92;1.88;;;11.40;92.10;;;;;;10139925;28;20085;-62
2022/04/06 02:44:28;;;;;;;2.78;1.35;;;11.30;92.20;;;;;;10152714;28;20532;-62
2022/04/06 02:49:19;;;;;;;4.18;1.80;;;11.30;92.20;;;;;;10151819;28;20040;-62
2022/04/06 02:54:10;;;;;;;1.75;1.35;;;11.30;92.20;;;;;;10150851;28;20024;-63
2022/04/06 02:59:01;;;;;;;2.08;1.55;;;11.40;92.20;;;;;;10153412;28;20055;-66
2022/04/06 03:03:52;;;;;;;5.28;3.28;;;11.40;92.10;;;;;;10143789;28;20085;-62
2022/04/06 03:08:43;;;;;;;2.58;1.63;;;11.40;92.20;;;;;;10150362;28;20043;-62
2022/04/06 03:13:33;;;;;;;2.10;1.58;;;11.40;92.20;;;;;;10158868;28;20039;-63
2022/04/06 03:18:24;;;;;;;5.30;2.25;;;11.50;92.10;;;;;;10146566;28;20032;-62
2022/04/06 03:23:15;;;;;;;2.58;1.88;;;11.50;92.20;;;;;;10140214;28;20025;-63
2022/04/06 03:28:06;;;;;;;3.47;2.10;;;11.40;92.30;;;;;;10145577;28;20281;-62
2022/04/06 03:32:56;;;;;;;2.75;1.73;;;11.40;92.20;;;;;;10137188;28;20232;-62
2022/04/06 03:37:47;;;;;;;2.28;1.98;;;11.40;92.60;;;;;;10145953;28;20072;-65
2022/04/06 03:42:38;;;;;;;5.68;2.28;;;11.40;92.40;;;;;;10144713;28;20047;-62
2022/04/06 03:47:33;;;;;;;3.30;2.28;;;11.40;92.20;;;;;;10139280;28;20025;-63
2022/04/06 03:52:25;;;;;;;3.77;2.47;;;11.30;92.30;;;;;;10160621;28;20263;-61
2022/04/06 03:57:16;;;;;;;3.08;2.25;;;11.40;92.30;;;;;;10138256;28;20482;-62
2022/04/06 04:02:07;;;;;;;3.03;2.22;;;11.40;92.20;;;;;;10134530;28;20033;-62
2022/04/06 04:06:57;;;;;;;3.47;2.58;;;11.40;92.30;;;;;;10159496;28;20034;-64
2022/04/06 04:11:48;;;;;;;3.90;2.67;;;11.40;92.20;;;;;;10146148;28;20067;-62
2022/04/06 04:16:38;;;;;;;5.45;2.40;;;11.30;92.30;;;;;;10138215;28;20029;-62
2022/04/06 04:21:32;;;;;;;4.95;2.55;;;11.30;92.30;;;;;;10154376;28;20367;-63
2022/04/06 04:26:23;;;;;;;5.63;2.42;;;11.30;92.30;;;;;;10153238;28;20370;-61
2022/04/06 04:31:13;;;;;;;2.97;1.75;;;11.30;92.30;;;;;;10148017;28;20081;-62
2022/04/06 04:36:04;;;;;;;4.50;2.63;;;11.20;92.30;;;;;;10142155;28;20047;-62
2022/04/06 04:40:55;;;;;;;3.72;2.20;;;11.30;92.40;;;;;;10158698;28;20064;-62
2022/04/06 04:45:46;;;;;;;3.80;1.83;;;11.30;92.40;;;;;;10156846;28;20142;-61
2022/04/06 04:50:37;;;;;;;3.38;2.00;;;11.20;92.50;;;;;;10154113;28;20028;-64
2022/04/06 04:55:27;;;;;;;2.58;1.70;;;11.20;92.60;;;;;;10158498;28;20028;-63
2022/04/06 05:00:18;;;;;;;3.03;2.00;;;11.20;92.60;;;;;;10158208;28;20051;-63
2022/04/06 05:05:10;;;;;;;4.40;2.22;;;11.10;92.60;;;;;;10156652;28;20028;-62
2022/04/06 05:10:00;;;;;;;2.88;1.88;;;11.10;92.70;;;;;;10175548;28;20544;-62
2022/04/06 05:14:51;;;;;;;4.25;2.15;;;11.00;92.80;;;;;;10159549;28;20034;-63
2022/04/06 05:19:42;;;;;;;5.82;2.22;;;11.00;92.90;;;;;;10171521;28;20039;-62
2022/04/06 05:24:33;;;;;;;2.90;2.25;;;11.00;93.00;;;;;;10166269;28;20557;-64
2022/04/06 05:29:23;;;;;;;4.68;2.95;;;11.10;92.80;;;;;;10140338;28;20058;-65
2022/04/06 05:34:16;;;;;;;3.10;2.17;;;11.10;92.90;;;;;;10150265;28;20036;-62
2022/04/06 05:39:08;;;;;;;3.47;2.03;;;11.10;92.90;;;;;;10149289;28;20070;-62
2022/04/06 05:43:59;;;;;;;2.60;2.10;;;11.10;93.00;;;;;;10165277;28;20028;-64
2022/04/06 05:48:49;;;;;;;3.90;2.25;;;11.10;93.00;;;;;;10161708;28;20395;-63
2022/04/06 05:53:40;;;;;;;3.60;2.10;;;11.20;93.00;;;;;;10163024;28;20027;-67
2022/04/06 05:58:31;;;;;;;3.72;2.00;;;11.20;93.00;;;;;;10159757;28;20055;-68
2022/04/06 06:03:21;;;;;;;3.25;1.73;;;11.30;93.00;;;;;;10150798;28;20023;-65
2022/04/06 06:08:12;;;;;;;5.72;3.30;;;11.40;93.00;;;;;;10171172;28;20024;-64
2022/04/06 06:13:03;;;;;;;2.42;1.85;;;11.40;93.00;;;;;;10159858;28;20498;-63
2022/04/06 06:17:53;;;;;;;2.70;1.80;;;11.50;92.90;;;;;;10147020;28;20028;-63
2022/04/06 06:22:44;;;;;;;2.35;1.58;;;11.60;93.00;;;;;;10165166;28;20142;-62
2022/04/06 06:27:42;;;;;;;3.05;2.10;;;11.60;93.30;;;;;;10157889;28;20040;-65
2022/04/06 06:32:33;;;;;;;4.55;2.25;;;11.70;93.00;;;;;;10162015;28;20036;-62
2022/04/06 06:37:24;;;;;;;3.25;2.40;;;11.80;93.00;;;;;;10163339;28;20062;-63
2022/04/06 06:42:14;;;;;;;3.90;2.72;;;11.70;93.00;;;;;;10165995;28;20028;-64
2022/04/06 06:47:05;;;;;;;5.15;2.88;;;11.80;93.00;;;;;;10163588;28;20111;-66
2022/04/06 06:51:56;;;;;;;5.35;3.58;;;11.80;93.00;;;;;;10162573;28;20186;-64
2022/04/06 06:56:46;;;;;;;3.10;2.70;;;12.00;93.00;;;;;;10154443;28;20112;-63
2022/04/06 07:01:37;;;;;;;3.25;2.15;;;12.10;92.90;;;;;;10162038;28;20410;-61
2022/04/06 07:06:28;;;;;;;3.67;2.72;;;12.30;92.70;;;;;;10157970;28;20085;-66
2022/04/06 07:11:19;;;;;;;2.78;2.20;;;12.40;92.60;;;;;;10144646;28;20052;-63
2022/04/06 07:16:11;;;;;;;3.88;2.30;;;12.50;92.60;;;;;;10163997;28;20175;-64
2022/04/06 07:21:02;;;;;;;3.30;1.95;;;12.70;92.40;;;;;;10146755;28;20520;-63
2022/04/06 07:25:52;;;;;;;2.90;2.00;;;12.80;92.40;;;;;;10148131;28;20039;-63
2022/04/06 07:30:43;;;;;;;2.80;1.73;;;12.80;92.40;;;;;;10137784;28;20483;-62
2022/04/06 07:35:35;;;;;;;3.20;1.30;;;12.90;92.30;;;;;;10133485;28;20044;-62
2022/04/06 07:40:25;;;;;;;2.42;1.55;;;12.90;92.20;;;;;;10170518;28;20525;-59
2022/04/06 07:45:18;;;;;;;2.28;1.27;;;13.20;92.00;;;;;;10156233;28;20036;-63
2022/04/06 07:50:09;;;;;;;34.60;14.13;;;13.30;91.80;;;;;;10139697;28;20451;-62
2022/04/06 07:54:59;;;;;;;6.53;3.05;;;13.60;91.70;;;;;;10132450;28;20028;-60
2022/04/06 07:59:57;;;;;;;5.53;2.35;;;13.60;91.40;;;;;;10160770;28;20521;-63
2022/04/06 08:04:48;;;;;;;4.28;2.17;;;13.60;91.50;;;;;;10151267;28;20081;-64
2022/04/06 08:09:38;;;;;;;3.13;1.90;;;13.80;91.20;;;;;;10150460;28;20076;-63
2022/04/06 08:14:29;;;;;;;2.80;1.63;;;13.80;91.20;;;;;;10143387;28;20024;-61
2022/04/06 08:19:20;;;;;;;2.15;1.05;;;13.80;91.30;;;;;;10163469;28;20201;-62
2022/04/06 08:24:10;;;;;;;0.70;0.45;;;13.70;91.10;;;;;;10150864;28;20055;-61
2022/04/06 08:29:01;;;;;;;1.02;0.70;;;13.60;91.00;;;;;;10157535;28;20445;-61
2022/04/06 08:33:51;;;;;;;0.77;0.50;;;13.80;90.70;;;;;;10153140;28;20039;-62
2022/04/06 08:38:43;;;;;;;1.55;1.05;;;13.90;90.50;;;;;;10170684;28;20059;-63
2022/04/06 08:43:34;;;;;;;2.20;0.60;;;14.00;90.30;;;;;;10176232;28;20039;-60
2022/04/06 08:48:30;;;;;;;1.05;0.63;;;14.20;89.60;;;;;;10167093;28;20034;-63
2022/04/06 08:53:21;;;;;;;1.50;0.70;;;14.20;88.80;;;;;;10151131;28;20036;-62
2022/04/06 08:58:12;;;;;;;1.17;0.70;;;14.10;88.40;;;;;;10136234;28;20372;-61
2022/04/06 09:03:02;;;;;;;1.88;0.70;;;14.20;88.00;;;;;;10149314;28;20044;-61
2022/04/06 09:07:53;;;;;;;0.55;0.50;;;14.30;87.20;;;;;;10168275;28;20028;-63
2022/04/06 09:12:44;;;;;;;0.80;0.60;;;14.20;87.00;;;;;;10154207;28;20043;-61
2022/04/06 09:17:46;;;;;;;1.35;0.63;;;14.20;86.70;;;;;;10147231;28;20098;-63
2022/04/06 09:22:37;;;;;;;0.65;0.50;;;14.30;86.00;;;;;;10145531;28;20040;-65
2022/04/06 09:27:34;;;;;;;0.80;0.68;;;14.60;85.10;;;;;;10170158;28;20745;-63
2022/04/06 09:32:25;;;;;;;0.90;0.70;;;14.70;84.60;;;;;;10169116;28;20027;-62
2022/04/06 09:37:28;;;;;;;1.10;0.60;;;14.70;84.30;;;;;;10151509;28;20788;-62
2022/04/06 09:42:27;;;;;;;0.55;0.55;;;14.70;83.60;;;;;;10166240;28;20178;-63
2022/04/06 09:52:30;;;;;;;1.85;0.50;;;14.30;83.70;;;;;;10153377;28;20119;-64
2022/04/06 09:57:21;;;;;;;0.75;0.40;;;14.50;83.10;;;;;;10160947;28;20028;-65
2022/04/06 10:02:12;;;;;;;0.73;0.32;;;14.60;82.50;;;;;;10170878;28;20431;-61
2022/04/06 10:07:04;;;;;;;0.80;0.40;;;15.20;82.00;;;;;;10152284;28;20446;-61
2022/04/06 10:11:57;;;;;;;0.98;0.70;;;15.50;81.40;;;;;;10171267;28;20032;-62
2022/04/06 10:16:48;;;;;;;0.82;0.43;;;15.70;81.00;;;;;;10163144;28;20020;-67
2022/04/06 10:21:48;;;;;;;1.10;0.70;;;15.40;81.30;;;;;;10162970;28;20039;-63
2022/04/06 10:27:25;;;;;;;2.10;1.48;;;15.20;81.10;;;;;;10162996;28;20078;-61
2022/04/06 10:32:40;;;;;;;1.35;0.52;;;15.00;80.60;;;;;;10146859;28;20683;-62
2022/04/06 10:37:31;;;;;;;1.10;0.70;;;15.40;79.10;;;;;;10148818;28;20048;-64
2022/04/06 10:42:29;;;;;;;0.93;0.60;;;15.30;80.10;;;;;;10146357;28;20078;-63
2022/04/06 10:47:22;;;;;;;1.42;0.50;;;15.20;80.00;;;;;;10156940;28;20381;-62
2022/04/06 10:52:24;;;;;;;1.70;1.17;;;15.10;79.80;;;;;;10133662;28;20089;-62
2022/04/06 10:57:14;;;;;;;1.85;0.88;;;15.30;79.20;;;;;;10138992;28;20031;-66
2022/04/06 11:02:25;;;;;;;2.03;0.82;;;15.40;79.20;;;;;;10168956;28;20395;-63
2022/04/06 11:13:04;;;;;;;1.50;0.90;;;15.40;78.20;;;;;;10165484;28;20368;-62
2022/04/06 11:17:55;;;;;;;1.50;0.90;;;15.40;78.00;;;;;;10171848;28;20126;-62
2022/04/06 11:22:53;;;;;;;2.28;1.13;;;15.40;78.00;;;;;;10154603;28;20459;-63
2022/04/06 11:27:46;;;;;;;2.20;0.88;;;15.50;77.70;;;;;;10165799;28;20454;-62
2022/04/06 11:32:36;;;;;;;2.25;0.90;;;15.70;77.20;;;;;;10161727;28;20048;-62
2022/04/06 11:37:28;;;;;;;2.97;1.60;;;15.80;76.60;;;;;;10150464;28;20055;-63
2022/04/06 11:42:19;;;;;;;0.77;0.60;;;15.80;76.50;;;;;;10159770;28;20029;-62
2022/04/06 11:47:11;;;;;;;2.50;1.00;;;15.80;76.40;;;;;;10149603;28;20044;-62
2022/04/06 11:52:01;;;;;;;0.55;0.43;;;16.00;76.00;;;;;;10149276;28;20123;-66
2022/04/06 11:56:54;;;;;;;1.15;0.73;;;16.20;75.10;;;;;;10155947;28;20024;-63
2022/04/06 12:01:46;;;;;;;1.33;0.68;;;16.70;74.80;;;;;;10155826;28;20143;-60
2022/04/06 12:06:36;;;;;;;3.08;0.98;;;16.90;74.20;;;;;;10161024;28;20081;-63
2022/04/06 12:11:27;;;;;;;1.05;0.93;;;17.10;73.80;;;;;;10143566;28;20078;-61
2022/04/06 12:16:22;;;;;;;1.25;0.80;;;17.30;73.60;;;;;;10152403;28;20471;-58
2022/04/06 12:21:21;;;;;;;0.80;0.55;;;17.50;72.80;;;;;;10147567;28;20126;-63
2022/04/06 12:26:12;;;;;;;0.70;0.60;;;17.60;72.30;;;;;;10149839;28;20037;-63
2022/04/06 12:31:07;;;;;;;0.80;0.60;;;17.70;72.00;;;;;;10152174;28;20671;-63
2022/04/06 12:36:27;;;;;;;1.40;0.80;;;17.50;72.00;;;;;;10155292;28;20116;-63
2022/04/06 12:41:21;;;;;;;1.17;0.75;;;17.30;70.40;;;;;;10165186;28;20135;-64
2022/04/06 12:46:13;;;;;;;2.53;1.00;;;17.30;71.40;;;;;;10157786;28;20529;-62
2022/04/06 12:51:22;;;;;;;1.63;0.90;;;17.30;70.80;;;;;;10145147;28;20106;-62
2022/04/06 12:56:13;;;;;;;2.03;0.90;;;17.10;70.40;;;;;;10164224;28;20039;-62
2022/04/06 13:01:09;;;;;;;2.10;1.00;;;17.00;70.60;;;;;;10158975;28;20040;-61
2022/04/06 13:06:00;;;;;;;2.60;0.80;;;17.00;70.10;;;;;;10161231;28;20111;-60
2022/04/06 13:10:54;;;;;;;1.35;0.80;;;17.10;69.80;;;;;;10162896;28;20139;-62
2022/04/06 13:15:45;;;;;;;1.77;1.63;;;17.20;69.10;;;;;;10164860;28;20247;-60
2022/04/06 13:20:36;;;;;;;2.78;0.93;;;17.10;69.00;;;;;;10148720;28;20494;-62
2022/04/06 13:25:26;;;;;;;2.95;0.80;;;17.10;69.10;;;;;;10170516;28;20008;-61
2022/04/06 13:30:18;;;;;;;2.42;0.70;;;16.90;68.90;;;;;;10172250;28;20032;-63
2022/04/06 13:35:09;;;;;;;3.78;0.63;;;16.80;68.80;;;;;;10175514;28;20051;-66
2022/04/06 13:40:00;;;;;;;2.25;1.13;;;16.70;68.70;;;;;;10162215;28;20040;-62
2022/04/06 13:44:51;;;;;;;2.97;0.98;;;16.70;68.70;;;;;;10141825;28;20416;-63
2022/04/06 13:49:42;;;;;;;1.98;1.33;;;16.70;68.50;;;;;;10147854;28;20055;-62
2022/04/06 13:54:33;;;;;;;1.48;0.88;;;16.80;68.40;;;;;;10154080;28;20019;-61
2022/04/06 13:59:24;;;;;;;1.50;0.80;;;16.70;68.20;;;;;;10146892;28;20085;-60
2022/04/06 14:04:15;;;;;;;0.95;0.85;;;16.70;68.20;;;;;;10163501;28;20622;-63
2022/04/06 14:09:07;;;;;;;2.65;1.63;;;17.10;67.80;;;;;;10154801;28;20146;-61
2022/04/06 14:13:58;;;;;;;2.42;0.70;;;17.50;67.10;;;;;;10139474;28;20081;-63
2022/04/06 14:18:50;;;;;;;0.65;0.63;;;17.50;67.40;;;;;;10143594;28;20482;-63
2022/04/06 14:23:41;;;;;;;1.20;0.80;;;17.50;67.20;;;;;;10150366;28;20039;-62
2022/04/06 14:28:36;;;;;;;1.13;0.70;;;17.30;67.60;;;;;;10167003;28;20047;-62
2022/04/06 14:33:27;;;;;;;1.33;1.02;;;17.20;67.60;;;;;;10146622;28;20556;-62
2022/04/06 14:38:18;;;;;;;1.27;0.60;;;17.20;67.50;;;;;;10147687;28;20139;-63
2022/04/06 14:43:09;;;;;;;2.78;0.88;;;17.30;67.10;;;;;;10160439;28;20116;-61
2022/04/06 14:48:00;;;;;;;1.70;0.98;;;17.40;66.80;;;;;;10156018;28;20020;-63
2022/04/06 14:52:51;;;;;;;2.17;1.00;;;17.50;67.10;;;;;;10158076;28;20047;-63
2022/04/06 14:57:42;;;;;;;2.78;1.27;;;17.40;67.00;;;;;;10169824;28;20024;-61
2022/04/06 15:02:32;;;;;;;1.15;0.68;;;17.20;67.30;;;;;;10157194;28;20398;-63
2022/04/06 15:07:23;;;;;;;3.88;0.93;;;16.80;67.70;;;;;;10147690;28;20044;-63
2022/04/06 15:12:14;;;;;;;1.10;0.70;;;16.50;67.70;;;;;;10150226;28;20571;-62
2022/04/06 15:17:06;;;;;;;1.17;1.08;;;16.30;67.60;;;;;;10154611;28;20084;-62
2022/04/06 15:21:56;;;;;;;1.30;0.80;;;16.30;67.70;;;;;;10134742;28;20051;-63
2022/04/06 15:26:49;;;;;;;3.65;1.17;;;16.40;67.50;;;;;;10152260;28;20024;-62
2022/04/06 15:31:39;;;;;;;1.45;1.00;;;16.30;67.50;;;;;;10151852;28;20056;-61
2022/04/06 15:41:53;;;;;;;1.23;1.00;;;16.00;68.50;;;;;;10126165;28;20074;-64
2022/04/06 15:46:44;;;;;;;2.42;1.10;;;15.90;68.80;;;;;;10142933;28;20029;-63
2022/04/06 15:51:35;;;;;;;1.95;1.00;;;15.80;68.80;;;;;;10140686;28;20025;-62
2022/04/06 15:56:26;;;;;;;2.83;0.88;;;15.70;69.20;;;;;;10150984;28;20134;-62
2022/04/06 16:01:16;;;;;;;7.53;1.70;;;15.60;69.20;;;;;;10169324;28;20038;-62
2022/04/06 16:06:09;;;;;;;2.50;0.75;;;15.60;69.40;;;;;;10154456;28;20074;-61
2022/04/06 16:10:59;;;;;;;1.42;1.02;;;15.50;69.70;;;;;;10155320;28;20020;-61
2022/04/06 16:15:51;;;;;;;1.35;0.90;;;15.60;69.70;;;;;;10155726;28;20047;-62
2022/04/06 16:20:41;;;;;;;2.88;0.82;;;15.50;70.10;;;;;;10132950;28;20498;-60
2022/04/06 16:25:33;;;;;;;2.72;1.10;;;15.40;70.50;;;;;;10145783;28;20033;-66
2022/04/06 16:30:24;;;;;;;1.58;1.08;;;15.40;70.50;;;;;;10137591;28;20093;-60
2022/04/06 16:35:14;;;;;;;2.08;0.95;;;15.30;70.80;;;;;;10166172;28;20135;-60
2022/04/06 16:40:06;;;;;;;2.45;1.30;;;15.20;71.40;;;;;;10159123;28;20422;-61
2022/04/06 16:44:57;;;;;;;1.30;0.75;;;15.10;71.80;;;;;;10140837;28;20591;-60
2022/04/06 16:54:57;;;;;;;2.90;1.10;;;15.10;72.10;;;;;;10164032;28;20035;-61
2022/04/06 16:59:48;;;;;;;1.58;0.98;;;15.10;72.30;;;;;;10146435;28;20044;-62
2022/04/06 17:04:39;;;;;;;2.53;1.60;;;15.00;72.60;;;;;;10168288;28;20064;-62
2022/04/06 17:09:30;;;;;;;2.03;1.10;;;15.00;73.00;;;;;;10164136;28;20166;-61
2022/04/06 17:14:22;;;;;;;1.80;0.90;;;14.90;73.10;;;;;;10155404;28;20509;-61
2022/04/06 17:19:14;;;;;;;3.70;1.27;;;14.80;73.50;;;;;;10152273;28;20048;-63
2022/04/06 17:24:05;;;;;;;2.28;1.30;;;14.80;73.50;;;;;;10152545;28;20529;-64
2022/04/06 17:28:56;;;;;;;4.43;1.60;;;14.80;73.70;;;;;;10149302;28;20488;-62
2022/04/06 17:33:46;;;;;;;4.90;1.65;;;14.80;74.00;;;;;;10123143;28;20033;-61
2022/04/06 17:38:37;;;;;;;3.13;1.58;;;14.70;74.60;;;;;;10144347;28;20127;-61
2022/04/06 17:43:28;;;;;;;3.42;1.30;;;14.60;74.60;;;;;;10155946;28;20027;-62
2022/04/06 17:48:19;;;;;;;2.90;1.10;;;14.60;74.80;;;;;;10142299;28;20030;-60
2022/04/06 17:53:09;;;;;;;3.70;1.30;;;14.50;75.60;;;;;;10172852;28;20017;-60
2022/04/06 17:58:01;;;;;;;2.75;1.33;;;14.40;75.90;;;;;;10154668;28;20028;-62
2022/04/06 18:02:52;;;;;;;3.28;1.30;;;14.40;76.10;;;;;;10155600;28;20065;-64
2022/04/06 18:07:43;;;;;;;2.30;1.83;;;14.40;76.20;;;;;;10162842;28;20103;-63
2022/04/06 18:17:44;;;;;;;3.15;1.55;;;14.30;77.00;;;;;;10156172;28;20285;-63
2022/04/06 18:22:35;;;;;;;1.98;1.20;;;14.20;77.10;;;;;;10150643;28;20043;-63
2022/04/06 18:27:25;;;;;;;3.25;1.00;;;14.30;77.40;;;;;;10149140;28;20446;-65
2022/04/06 18:32:16;;;;;;;2.72;1.10;;;14.20;77.90;;;;;;10152858;28;20043;-61
2022/04/06 18:37:07;;;;;;;1.33;1.13;;;14.20;77.80;;;;;;10173190;28;20549;-62
2022/04/06 18:41:59;;;;;;;1.67;1.10;;;14.20;78.10;;;;;;10168164;28;20040;-62
2022/04/06 18:46:50;;;;;;;1.33;0.90;;;14.10;78.40;;;;;;10164070;28;20504;-62
2022/04/06 18:51:41;;;;;;;2.47;1.27;;;14.10;78.60;;;;;;10146142;28;20153;-62
2022/04/06 18:56:32;;;;;;;1.00;0.90;;;14.10;78.70;;;;;;10144427;28;20012;-61
2022/04/06 19:01:22;;;;;;;2.30;1.10;;;14.10;78.60;;;;;;10149287;28;20036;-61
2022/04/06 19:06:13;;;;;;;2.95;1.20;;;14.20;78.60;;;;;;10169278;28;20081;-62
2022/04/06 19:11:04;;;;;;;1.70;0.90;;;14.10;79.00;;;;;;10144077;28;20033;-65
2022/04/06 19:15:54;;;;;;;2.53;1.17;;;14.10;79.10;;;;;;10155337;28;20044;-67
2022/04/06 19:20:46;;;;;;;2.17;1.15;;;14.10;79.10;;;;;;10142245;28;20556;-65
2022/04/06 19:25:38;;;;;;;2.20;1.08;;;14.00;79.50;;;;;;10132370;28;20060;-63
2022/04/06 19:30:30;;;;;;;1.10;0.82;;;14.00;79.50;;;;;;10158295;28;20532;-60
2022/04/06 19:35:22;;;;;;;0.95;0.85;;;14.00;79.60;;;;;;10161102;28;20040;-63
2022/04/06 19:40:13;;;;;;;1.77;1.15;;;14.00;80.00;;;;;;10161061;28;20425;-63
2022/04/06 19:45:06;;;;;;;4.03;1.20;;;14.00;80.30;;;;;;10142111;28;20552;-63
2022/04/06 19:49:56;;;;;;;1.63;1.00;;;14.00;80.10;;;;;;10154008;28;20059;-67
2022/04/06 19:54:51;;;;;;;4.60;1.17;;;14.00;80.30;;;;;;10161162;28;20016;-63
2022/04/06 19:59:41;;;;;;;1.73;1.63;;;14.00;80.40;;;;;;10160598;28;20065;-64
2022/04/06 20:04:36;;;;;;;3.17;1.73;;;13.90;81.00;;;;;;10159448;28;20086;-63
2022/04/06 20:09:26;;;;;;;2.03;1.00;;;13.80;81.40;;;;;;10141928;28;20318;-65
2022/04/06 20:14:17;;;;;;;4.78;1.30;;;13.60;81.70;;;;;;10152438;28;20327;-65
2022/04/06 20:19:09;;;;;;;1.48;1.23;;;13.50;82.20;;;;;;10164708;28;20391;-64
2022/04/06 20:24:00;;;;;;;2.40;1.10;;;13.40;82.90;;;;;;10138402;28;20574;-64
2022/04/06 20:28:50;;;;;;;2.22;1.00;;;13.30;83.20;;;;;;10156814;28;20030;-67
2022/04/06 20:33:41;;;;;;;1.52;1.00;;;13.30;84.10;;;;;;10167643;28;20118;-64
2022/04/06 20:38:33;;;;;;;1.65;1.23;;;13.30;84.10;;;;;;10148786;28;20123;-60
2022/04/06 20:43:24;;;;;;;1.10;0.93;;;13.30;84.50;;;;;;10160657;28;20094;-61
2022/04/06 20:48:16;;;;;;;2.90;1.45;;;13.30;84.80;;;;;;10149862;28;20021;-62
2022/04/06 20:53:07;;;;;;;2.30;1.52;;;13.20;85.00;;;;;;10151862;28;20026;-63
2022/04/06 20:57:57;;;;;;;1.92;1.50;;;13.10;85.40;;;;;;10151447;28;20032;-64
2022/04/06 21:02:48;;;;;;;1.92;1.45;;;13.10;86.20;;;;;;10162535;28;20070;-65
2022/04/06 21:07:40;;;;;;;1.80;1.13;;;13.00;86.30;;;;;;10148991;28;20557;-64
2022/04/06 21:12:31;;;;;;;2.75;1.15;;;13.00;86.70;;;;;;10156965;28;20477;-65
2022/04/06 21:17:22;;;;;;;2.60;1.40;;;13.20;86.60;;;;;;10147233;28;20108;-64
2022/04/06 21:22:12;;;;;;;1.98;1.38;;;13.10;86.80;;;;;;10127984;28;20138;-65
2022/04/06 21:27:03;;;;;;;3.47;1.42;;;13.10;87.40;;;;;;10161397;28;20507;-63
2022/04/06 21:31:54;;;;;;;2.15;1.27;;;13.10;87.40;;;;;;10159227;28;20085;-63
2022/04/06 21:36:45;;;;;;;1.77;1.25;;;13.20;87.60;;;;;;10166861;28;20161;-62
2022/04/06 21:41:35;;;;;;;1.70;1.45;;;13.00;88.20;;;;;;10171102;28;20074;-63
2022/04/06 21:46:26;;;;;;;2.53;1.35;;;12.90;88.60;;;;;;10144694;28;20052;-62
2022/04/06 21:51:17;;;;;;;2.58;1.30;;;12.90;89.00;;;;;;10158905;28;20067;-64
2022/04/06 21:56:07;;;;;;;3.38;1.23;;;12.80;89.50;;;;;;10155433;28;20025;-63
2022/04/06 22:00:58;;;;;;;1.45;1.08;;;12.90;89.40;;;;;;10164278;28;20047;-63
2022/04/06 22:05:49;;;;;;;2.08;1.02;;;12.80;89.40;;;;;;10149812;28;20165;-65
2022/04/06 22:10:39;;;;;;;1.13;0.63;;;12.90;89.40;;;;;;10167288;28;20452;-63
2022/04/06 22:15:30;;;;;;;0.75;0.60;;;12.90;89.30;;;;;;10153173;28;20047;-64
2022/04/06 22:20:21;;;;;;;1.30;0.80;;;13.00;89.20;;;;;;10151538;28;20055;-62
2022/04/06 22:25:13;;;;;;;0.80;0.60;;;13.00;89.10;;;;;;10154641;28;20043;-62
2022/04/06 22:30:04;;;;;;;0.77;0.60;;;13.00;89.20;;;;;;10154790;28;20032;-63
2022/04/06 22:34:55;;;;;;;1.77;0.50;;;13.00;89.10;;;;;;10141062;28;20055;-62
2022/04/06 22:39:46;;;;;;;0.70;0.40;;;13.00;89.00;;;;;;10154579;28;20197;-62
2022/04/06 22:44:36;;;;;;;1.30;0.50;;;12.90;88.90;;;;;;10158439;28;20063;-63
2022/04/06 22:49:27;;;;;;;0.57;0.50;;;12.80;89.00;;;;;;10146766;28;20025;-63
2022/04/06 22:54:19;;;;;;;1.85;0.30;;;12.70;89.00;;;;;;10154116;28;20361;-63
2022/04/06 22:59:10;;;;;;;0.22;0.20;;;12.70;89.00;;;;;;10154428;28;20035;-64
2022/04/06 23:04:00;;;;;;;0.43;0.32;;;12.70;89.10;;;;;;10171975;28;20078;-63
2022/04/06 23:08:51;;;;;;;0.80;0.40;;;12.60;89.00;;;;;;10154185;28;20029;-64
2022/04/06 23:13:43;;;;;;;0.43;0.35;;;12.70;88.90;;;;;;10151833;28;20032;-64
2022/04/06 23:18:33;;;;;;;0.50;0.30;;;12.70;88.80;;;;;;10127329;28;20028;-64
2022/04/06 23:23:24;;;;;;;0.40;0.40;;;12.70;88.80;;;;;;10145427;28;20702;-62
2022/04/06 23:28:16;;;;;;;3.05;0.30;;;12.70;88.70;;;;;;10156671;28;20032;-63
2022/04/06 23:33:06;;;;;;;0.20;0.20;;;12.70;88.90;;;;;;10146160;28;20354;-64
2022/04/06 23:37:57;;;;;;;0.52;0.30;;;12.70;89.10;;;;;;10153612;28;20040;-63
2022/04/06 23:42:48;;;;;;;0.55;0.20;;;12.60;89.40;;;;;;10164388;28;20048;-62
2022/04/06 23:47:38;;;;;;;0.30;0.10;;;12.60;89.50;;;;;;10148810;28;20087;-62
2022/04/06 23:52:29;;;;;;;0.85;0.43;;;12.60;89.50;;;;;;10153746;28;20023;-63
2022/04/06 23:57:20;;;;;;;0.57;0.40;;;12.50;89.80;;;;;;10134725;28;20402;-63
